createdAt,value
2018-08-19T01:31:20.147Z,17.11
2018-08-19T01:31:20.719Z,17.10
2018-08-19T01:31:21.319Z,17.10
2018-08-19T01:31:21.920Z,17.15
2018-08-19T01:31:22.519Z,17.13
2018-08-19T01:31:23.124Z,17.10
2018-08-19T01:31:23.718Z,17.13
2018-08-19T01:31:24.317Z,17.15
2018-08-19T01:32:17.786Z,17.11
2018-08-19T01:32:18.362Z,17.17
2018-08-19T01:32:18.960Z,17.15
2018-08-19T01:32:19.562Z,17.13
2018-08-19T01:32:20.161Z,17.07
2018-08-19T01:32:20.761Z,17.07
2018-08-19T01:32:21.359Z,17.10
2018-08-19T01:32:21.958Z,17.07
2018-08-19T01:33:15.425Z,17.22
2018-08-19T01:33:15.997Z,17.17
2018-08-19T01:33:16.596Z,17.17
2018-08-19T01:33:17.195Z,17.17
2018-08-19T01:33:17.795Z,17.15
2018-08-19T01:33:18.397Z,17.17
2018-08-19T01:33:18.996Z,17.18
2018-08-19T01:33:19.596Z,17.17
2018-08-19T01:34:14.054Z,17.10
2018-08-19T01:34:14.626Z,17.18
2018-08-19T01:34:15.224Z,17.23
2018-08-19T01:34:15.826Z,17.20
2018-08-19T01:34:16.426Z,17.17
2018-08-19T01:34:17.025Z,17.13
2018-08-19T01:34:17.627Z,17.14
2018-08-19T01:34:18.223Z,17.14
2018-08-19T01:35:12.682Z,17.17
2018-08-19T01:35:13.255Z,17.25
2018-08-19T01:35:13.855Z,17.28
2018-08-19T01:35:14.459Z,17.25
2018-08-19T01:35:15.054Z,17.25
2018-08-19T01:35:15.655Z,17.28
2018-08-19T01:35:16.256Z,17.28
2018-08-19T01:35:16.853Z,17.20
2018-08-19T01:36:11.316Z,17.25
2018-08-19T01:36:11.886Z,17.26
2018-08-19T01:36:12.486Z,17.32
2018-08-19T01:36:13.086Z,17.28
2018-08-19T01:36:13.685Z,17.29
2018-08-19T01:36:14.285Z,17.28
2018-08-19T01:36:14.885Z,17.20
2018-08-19T01:36:15.487Z,17.28
2018-08-19T01:37:08.953Z,17.30
2018-08-19T01:37:09.528Z,17.30
2018-08-19T01:37:10.124Z,17.28
2018-08-19T01:37:10.728Z,17.23
2018-08-19T01:37:11.324Z,17.30
2018-08-19T01:37:11.925Z,17.29
2018-08-19T01:37:12.527Z,17.18
2018-08-19T01:37:13.124Z,17.26
2018-08-19T01:38:06.596Z,17.28
2018-08-19T01:38:07.167Z,17.36
2018-08-19T01:38:07.767Z,17.28
2018-08-19T01:38:08.366Z,17.22
2018-08-19T01:38:08.968Z,17.29
2018-08-19T01:38:09.569Z,17.26
2018-08-19T01:38:10.166Z,17.25
2018-08-19T01:38:10.764Z,17.28
2018-08-19T01:39:05.228Z,17.28
2018-08-19T01:39:05.801Z,17.41
2018-08-19T01:39:06.399Z,17.30
2018-08-19T01:39:06.999Z,17.32
2018-08-19T01:39:07.599Z,17.30
2018-08-19T01:39:08.202Z,17.29
2018-08-19T01:39:08.798Z,17.29
2018-08-19T01:39:09.398Z,17.30
2018-08-19T01:40:04.363Z,17.41
2018-08-19T01:40:04.933Z,17.44
2018-08-19T01:40:05.533Z,17.32
2018-08-19T01:40:06.134Z,17.33
2018-08-19T01:40:06.733Z,17.36
2018-08-19T01:40:07.333Z,17.43
2018-08-19T01:40:07.932Z,17.44
2018-08-19T01:41:20.751Z,17.41
2018-08-19T01:41:21.326Z,17.53
2018-08-19T01:41:21.922Z,17.50
2018-08-19T01:41:22.522Z,17.48
2018-08-19T01:41:23.122Z,17.44
2018-08-19T01:41:23.724Z,17.44
2018-08-19T01:41:24.323Z,17.54
2018-08-19T01:41:24.922Z,17.47
2018-08-19T01:42:19.383Z,17.50
2018-08-19T01:42:19.957Z,17.54
2018-08-19T01:42:20.557Z,17.48
2018-08-19T01:42:21.156Z,17.48
2018-08-19T01:42:21.755Z,17.53
2018-08-19T01:42:22.355Z,17.47
2018-08-19T01:42:22.956Z,17.51
2018-08-19T01:42:23.556Z,17.51
2018-08-19T01:43:17.029Z,17.50
2018-08-19T01:43:17.600Z,17.55
2018-08-19T01:43:18.199Z,17.53
2018-08-19T01:43:18.799Z,17.55
2018-08-19T01:43:19.399Z,17.54
2018-08-19T01:43:20.000Z,17.51
2018-08-19T01:43:20.599Z,17.62
2018-08-19T01:43:21.198Z,17.59
2018-08-19T01:44:16.160Z,17.64
2018-08-19T01:44:16.737Z,17.63
2018-08-19T01:44:17.333Z,17.62
2018-08-19T01:44:17.938Z,17.62
2018-08-19T01:44:18.536Z,17.59
2018-08-19T01:44:19.133Z,17.64
2018-08-19T01:44:19.733Z,17.64
2018-08-19T01:45:13.203Z,17.63
2018-08-19T01:45:13.778Z,17.67
2018-08-19T01:45:14.384Z,17.70
2018-08-19T01:45:14.980Z,17.69
2018-08-19T01:45:15.577Z,17.71
2018-08-19T01:45:16.177Z,17.71
2018-08-19T01:45:16.783Z,17.74
2018-08-19T01:45:17.374Z,17.71
2018-08-19T01:46:10.849Z,17.74
2018-08-19T01:46:11.421Z,17.76
2018-08-19T01:46:12.019Z,17.76
2018-08-19T01:46:12.622Z,17.73
2018-08-19T01:46:13.221Z,17.76
2018-08-19T01:46:13.820Z,17.76
2018-08-19T01:46:14.419Z,17.73
2018-08-19T01:46:15.021Z,17.82
2018-08-19T01:47:09.481Z,17.76
2018-08-19T01:47:10.055Z,17.74
2018-08-19T01:47:10.654Z,17.81
2018-08-19T01:47:11.259Z,17.84
2018-08-19T01:47:11.854Z,17.70
2018-08-19T01:47:12.455Z,17.78
2018-08-19T01:47:13.054Z,17.84
2018-08-19T01:47:13.654Z,17.78
2018-08-19T01:48:07.127Z,17.89
2018-08-19T01:48:07.699Z,17.81
2018-08-19T01:48:08.301Z,17.81
2018-08-19T01:48:08.903Z,17.84
2018-08-19T01:48:09.501Z,17.74
2018-08-19T01:48:10.099Z,17.81
2018-08-19T01:48:10.701Z,17.85
2018-08-19T01:48:11.300Z,17.78
2018-08-19T01:49:05.763Z,17.84
2018-08-19T01:49:06.338Z,17.92
2018-08-19T01:49:06.937Z,17.87
2018-08-19T01:49:07.541Z,17.82
2018-08-19T01:49:08.136Z,17.87
2018-08-19T01:49:08.735Z,17.88
2018-08-19T01:49:09.335Z,17.84
2018-08-19T01:49:09.936Z,17.85
2018-08-19T01:50:04.400Z,17.85
2018-08-19T01:50:04.973Z,17.92
2018-08-19T01:50:05.572Z,17.99
2018-08-19T01:50:06.171Z,17.97
2018-08-19T01:50:06.771Z,17.97
2018-08-19T01:50:07.375Z,17.92
2018-08-19T01:50:07.973Z,17.89
2018-08-19T01:50:08.572Z,18.00
2018-08-19T01:51:03.034Z,18.03
2018-08-19T01:51:03.607Z,17.99
2018-08-19T01:51:04.209Z,17.94
2018-08-19T01:51:04.808Z,17.99
2018-08-19T01:51:05.407Z,18.00
2018-08-19T01:51:06.007Z,18.02
2018-08-19T01:51:06.610Z,18.03
2018-08-19T01:51:07.207Z,17.95
2018-08-19T01:52:00.680Z,18.02
2018-08-19T01:52:01.253Z,18.09
2018-08-19T01:52:01.919Z,18.06
2018-08-19T01:52:02.450Z,18.07
2018-08-19T01:52:03.052Z,18.09
2018-08-19T01:52:03.649Z,18.07
2018-08-19T01:52:04.249Z,18.04
2018-08-19T01:52:04.851Z,18.06
2018-08-19T01:52:58.330Z,18.10
2018-08-19T01:52:58.895Z,18.12
2018-08-19T01:52:59.496Z,18.12
2018-08-19T01:53:00.096Z,18.13
2018-08-19T01:53:00.695Z,18.10
2018-08-19T01:53:01.296Z,18.09
2018-08-19T01:53:01.894Z,18.13
2018-08-19T01:53:02.498Z,18.04
2018-08-19T01:53:56.959Z,18.12
2018-08-19T01:53:57.532Z,18.21
2018-08-19T01:53:58.131Z,18.19
2018-08-19T01:53:58.732Z,18.19
2018-08-19T01:53:59.333Z,18.24
2018-08-19T01:53:59.930Z,18.18
2018-08-19T01:54:00.532Z,18.19
2018-08-19T01:54:01.130Z,18.21
2018-08-19T01:54:55.593Z,18.25
2018-08-19T01:54:56.166Z,18.27
2018-08-19T01:54:56.764Z,18.21
2018-08-19T01:54:57.368Z,18.25
2018-08-19T01:54:57.965Z,18.25
2018-08-19T01:54:58.567Z,18.27
2018-08-19T01:54:59.166Z,18.27
2018-08-19T01:54:59.767Z,18.25
2018-08-19T01:55:53.239Z,18.28
2018-08-19T01:55:53.813Z,18.28
2018-08-19T01:55:54.413Z,18.31
2018-08-19T01:55:55.013Z,18.31
2018-08-19T01:55:55.612Z,18.28
2018-08-19T01:55:56.213Z,18.31
2018-08-19T01:55:56.811Z,18.27
2018-08-19T01:55:57.412Z,18.33
2018-08-19T01:56:50.885Z,18.36
2018-08-19T01:56:51.461Z,18.37
2018-08-19T01:56:52.058Z,18.36
2018-08-19T01:56:52.653Z,18.40
2018-08-19T01:56:53.253Z,18.36
2018-08-19T01:56:53.854Z,18.36
2018-08-19T01:56:54.452Z,18.31
2018-08-19T01:56:55.053Z,18.39
2018-08-19T01:57:49.517Z,18.37
2018-08-19T01:57:50.091Z,18.36
2018-08-19T01:57:50.691Z,18.39
2018-08-19T01:57:51.291Z,18.36
2018-08-19T01:57:51.890Z,18.42
2018-08-19T01:57:52.490Z,18.39
2018-08-19T01:57:53.090Z,18.40
2018-08-19T01:57:53.692Z,18.39
2018-08-19T01:58:47.163Z,18.46
2018-08-19T01:58:47.736Z,18.39
2018-08-19T01:58:48.335Z,18.46
2018-08-19T01:58:48.936Z,18.46
2018-08-19T01:58:49.536Z,18.43
2018-08-19T01:58:50.139Z,18.43
2018-08-19T01:58:50.735Z,18.40
2018-08-19T01:58:51.338Z,18.46
2018-08-19T01:59:45.798Z,18.47
2018-08-19T01:59:46.376Z,18.47
2018-08-19T01:59:46.972Z,18.50
2018-08-19T01:59:47.572Z,18.47
2018-08-19T01:59:48.171Z,18.44
2018-08-19T01:59:48.774Z,18.47
2018-08-19T01:59:49.371Z,18.46
2018-08-19T01:59:49.973Z,18.44
2018-08-19T02:00:44.434Z,18.44
2018-08-19T02:00:45.008Z,18.46
2018-08-19T02:00:45.610Z,18.57
2018-08-19T02:00:46.208Z,18.58
2018-08-19T02:00:46.806Z,18.64
2018-08-19T02:00:47.406Z,18.50
2018-08-19T02:00:48.008Z,18.57
2018-08-19T02:00:48.609Z,18.42
2018-08-19T02:01:42.080Z,18.55
2018-08-19T02:01:42.653Z,18.59
2018-08-19T02:01:43.254Z,18.62
2018-08-19T02:01:43.854Z,18.58
2018-08-19T02:01:44.457Z,18.57
2018-08-19T02:01:45.051Z,18.55
2018-08-19T02:01:45.651Z,18.55
2018-08-19T02:01:46.251Z,18.57
2018-08-19T02:02:39.723Z,18.54
2018-08-19T02:02:40.298Z,18.52
2018-08-19T02:02:40.897Z,18.70
2018-08-19T02:02:41.498Z,18.59
2018-08-19T02:02:42.098Z,18.65
2018-08-19T02:02:42.697Z,18.59
2018-08-19T02:02:43.300Z,18.68
2018-08-19T02:02:43.898Z,18.57
2018-08-19T02:03:38.364Z,18.61
2018-08-19T02:03:38.935Z,18.61
2018-08-19T02:03:39.537Z,18.61
2018-08-19T02:03:40.136Z,18.57
2018-08-19T02:03:40.737Z,18.57
2018-08-19T02:03:41.336Z,18.58
2018-08-19T02:03:41.937Z,18.62
2018-08-19T02:03:42.536Z,18.64
2018-08-19T02:04:36.010Z,18.62
2018-08-19T02:04:36.582Z,18.62
2018-08-19T02:04:37.182Z,18.72
2018-08-19T02:04:37.782Z,18.58
2018-08-19T02:04:38.382Z,18.61
2018-08-19T02:04:38.982Z,18.62
2018-08-19T02:04:39.582Z,18.62
2018-08-19T02:04:40.182Z,18.58
2018-08-19T02:05:34.646Z,18.72
2018-08-19T02:05:35.217Z,18.73
2018-08-19T02:05:35.818Z,18.62
2018-08-19T02:05:36.419Z,18.70
2018-08-19T02:05:37.018Z,18.68
2018-08-19T02:05:37.620Z,18.67
2018-08-19T02:05:38.218Z,18.74
2018-08-19T02:05:38.817Z,18.74
2018-08-19T02:06:33.282Z,18.72
2018-08-19T02:06:33.856Z,18.65
2018-08-19T02:06:34.455Z,18.72
2018-08-19T02:06:35.054Z,18.59
2018-08-19T02:06:35.655Z,18.65
2018-08-19T02:06:36.255Z,18.62
2018-08-19T02:06:36.854Z,18.68
2018-08-19T02:06:37.455Z,18.58
2018-08-19T02:07:30.935Z,18.65
2018-08-19T02:07:31.506Z,18.62
2018-08-19T02:07:32.107Z,18.67
2018-08-19T02:07:32.707Z,18.67
2018-08-19T02:07:33.307Z,18.65
2018-08-19T02:07:33.906Z,18.62
2018-08-19T02:07:34.507Z,18.68
2018-08-19T02:07:35.107Z,18.68
2018-08-19T02:08:29.580Z,18.64
2018-08-19T02:08:30.150Z,18.67
2018-08-19T02:08:30.749Z,18.73
2018-08-19T02:08:31.350Z,18.61
2018-08-19T02:08:31.951Z,18.74
2018-08-19T02:08:32.549Z,18.65
2018-08-19T02:08:33.149Z,18.68
2018-08-19T02:08:33.749Z,18.65
2018-08-19T02:09:27.224Z,18.67
2018-08-19T02:09:27.801Z,18.79
2018-08-19T02:09:28.398Z,18.77
2018-08-19T02:09:28.997Z,18.65
2018-08-19T02:09:29.599Z,18.76
2018-08-19T02:09:30.197Z,18.68
2018-08-19T02:09:30.799Z,18.76
2018-08-19T02:09:31.396Z,18.62
2018-08-19T02:10:24.874Z,18.65
2018-08-19T02:10:25.442Z,18.73
2018-08-19T02:10:26.041Z,18.74
2018-08-19T02:10:26.640Z,18.79
2018-08-19T02:10:27.244Z,18.73
2018-08-19T02:10:27.840Z,18.76
2018-08-19T02:10:28.440Z,18.76
2018-08-19T02:10:29.040Z,18.77
2018-08-19T02:11:22.516Z,18.76
2018-08-19T02:11:23.086Z,18.80
2018-08-19T02:11:23.684Z,18.79
2018-08-19T02:11:24.284Z,18.77
2018-08-19T02:11:24.885Z,18.72
2018-08-19T02:11:25.483Z,18.76
2018-08-19T02:11:26.083Z,18.80
2018-08-19T02:11:26.684Z,18.76
2018-08-19T02:12:20.157Z,18.79
2018-08-19T02:12:20.731Z,18.82
2018-08-19T02:12:21.330Z,18.76
2018-08-19T02:12:21.929Z,18.79
2018-08-19T02:12:22.534Z,18.76
2018-08-19T02:12:23.131Z,18.79
2018-08-19T02:12:23.730Z,18.76
2018-08-19T02:12:24.330Z,18.76
2018-08-19T02:13:18.795Z,18.77
2018-08-19T02:13:19.367Z,18.83
2018-08-19T02:13:19.967Z,18.79
2018-08-19T02:13:20.567Z,18.84
2018-08-19T02:13:21.169Z,18.80
2018-08-19T02:13:21.767Z,18.82
2018-08-19T02:13:22.368Z,18.77
2018-08-19T02:13:22.967Z,18.80
2018-08-19T02:14:17.432Z,18.83
2018-08-19T02:14:18.005Z,18.79
2018-08-19T02:14:18.605Z,18.79
2018-08-19T02:14:19.204Z,18.77
2018-08-19T02:14:19.806Z,18.84
2018-08-19T02:14:20.404Z,18.84
2018-08-19T02:14:21.005Z,18.77
2018-08-19T02:14:21.605Z,18.80
2018-08-19T02:15:15.079Z,18.83
2018-08-19T02:15:15.655Z,18.83
2018-08-19T02:15:16.253Z,18.83
2018-08-19T02:15:16.852Z,18.82
2018-08-19T02:15:17.452Z,18.80
2018-08-19T02:15:18.054Z,18.86
2018-08-19T02:15:18.658Z,18.80
2018-08-19T02:15:19.253Z,18.77
2018-08-19T02:16:13.718Z,18.79
2018-08-19T02:16:14.289Z,18.80
2018-08-19T02:16:14.890Z,18.86
2018-08-19T02:16:15.489Z,18.82
2018-08-19T02:16:16.089Z,18.86
2018-08-19T02:16:16.688Z,18.84
2018-08-19T02:16:17.292Z,18.86
2018-08-19T02:16:17.888Z,18.80
2018-08-19T02:17:11.364Z,18.87
2018-08-19T02:17:11.934Z,18.79
2018-08-19T02:17:12.536Z,18.86
2018-08-19T02:17:13.136Z,18.87
2018-08-19T02:17:13.737Z,18.86
2018-08-19T02:17:14.335Z,18.90
2018-08-19T02:17:14.936Z,18.83
2018-08-19T02:17:15.536Z,18.87
2018-08-19T02:18:09.007Z,18.84
2018-08-19T02:18:09.579Z,18.83
2018-08-19T02:18:10.184Z,18.84
2018-08-19T02:18:10.777Z,18.72
2018-08-19T02:18:11.378Z,18.86
2018-08-19T02:18:11.978Z,18.76
2018-08-19T02:18:12.578Z,18.87
2018-08-19T02:18:13.178Z,18.86
2018-08-19T02:19:07.644Z,18.87
2018-08-19T02:19:08.217Z,18.94
2018-08-19T02:19:08.816Z,18.83
2018-08-19T02:19:09.417Z,18.82
2018-08-19T02:19:10.016Z,18.84
2018-08-19T02:19:10.619Z,18.79
2018-08-19T02:19:11.216Z,18.86
2018-08-19T02:19:11.815Z,18.91
2018-08-19T02:20:05.296Z,18.86
2018-08-19T02:20:05.865Z,18.86
2018-08-19T02:20:06.465Z,18.92
2018-08-19T02:20:07.068Z,18.90
2018-08-19T02:20:07.666Z,18.84
2018-08-19T02:20:08.264Z,18.92
2018-08-19T02:20:08.865Z,18.87
2018-08-19T02:20:09.464Z,18.91
2018-08-19T02:21:02.940Z,18.91
2018-08-19T02:21:03.512Z,18.87
2018-08-19T02:21:04.112Z,18.97
2018-08-19T02:21:04.712Z,18.92
2018-08-19T02:21:05.311Z,18.94
2018-08-19T02:21:05.917Z,18.90
2018-08-19T02:21:06.512Z,18.92
2018-08-19T02:21:07.110Z,18.95
2018-08-19T02:22:00.590Z,18.90
2018-08-19T02:22:01.160Z,18.92
2018-08-19T02:22:01.761Z,18.94
2018-08-19T02:22:02.359Z,18.95
2018-08-19T02:22:02.960Z,18.92
2018-08-19T02:22:03.559Z,18.94
2018-08-19T02:22:04.160Z,18.92
2018-08-19T02:22:04.759Z,18.97
2018-08-19T02:22:58.235Z,18.91
2018-08-19T02:22:58.805Z,18.87
2018-08-19T02:22:59.406Z,18.90
2018-08-19T02:23:00.006Z,18.87
2018-08-19T02:23:00.608Z,18.92
2018-08-19T02:23:01.212Z,18.87
2018-08-19T02:23:01.805Z,18.98
2018-08-19T02:23:02.405Z,18.95
2018-08-19T02:23:56.870Z,18.91
2018-08-19T02:23:57.443Z,19.01
2018-08-19T02:23:58.043Z,18.91
2018-08-19T02:23:58.643Z,18.95
2018-08-19T02:23:59.243Z,18.99
2018-08-19T02:23:59.844Z,18.99
2018-08-19T02:24:00.442Z,18.90
2018-08-19T02:24:01.049Z,19.02
2018-08-19T02:24:55.506Z,18.98
2018-08-19T02:24:56.081Z,18.97
2018-08-19T02:24:56.679Z,19.02
2018-08-19T02:24:57.279Z,18.95
2018-08-19T02:24:57.881Z,19.05
2018-08-19T02:24:58.479Z,18.95
2018-08-19T02:24:59.080Z,18.94
2018-08-19T02:24:59.685Z,19.02
2018-08-19T02:25:53.153Z,18.91
2018-08-19T02:25:53.726Z,18.99
2018-08-19T02:25:54.326Z,18.98
2018-08-19T02:25:54.925Z,19.08
2018-08-19T02:25:55.526Z,18.92
2018-08-19T02:25:56.126Z,18.98
2018-08-19T02:25:56.725Z,19.05
2018-08-19T02:25:57.326Z,19.05
2018-08-19T02:26:51.789Z,18.98
2018-08-19T02:26:52.366Z,18.97
2018-08-19T02:26:52.962Z,19.01
2018-08-19T02:26:53.564Z,18.97
2018-08-19T02:26:54.164Z,19.06
2018-08-19T02:26:54.780Z,19.05
2018-08-19T02:26:55.362Z,19.05
2018-08-19T02:26:55.966Z,19.05
2018-08-19T02:27:49.440Z,18.99
2018-08-19T02:27:50.010Z,19.01
2018-08-19T02:27:50.609Z,18.95
2018-08-19T02:27:51.209Z,19.08
2018-08-19T02:27:51.816Z,19.05
2018-08-19T02:27:52.409Z,18.97
2018-08-19T02:27:53.010Z,19.01
2018-08-19T02:27:53.610Z,19.01
2018-08-19T02:28:47.084Z,18.97
2018-08-19T02:28:47.656Z,18.97
2018-08-19T02:28:48.255Z,19.05
2018-08-19T02:28:48.855Z,18.99
2018-08-19T02:28:49.456Z,19.01
2018-08-19T02:28:50.055Z,19.01
2018-08-19T02:28:50.654Z,18.98
2018-08-19T02:28:51.255Z,19.05
2018-08-19T02:29:44.728Z,18.98
2018-08-19T02:29:45.302Z,19.01
2018-08-19T02:29:45.901Z,18.97
2018-08-19T02:29:46.500Z,19.01
2018-08-19T02:29:47.102Z,18.98
2018-08-19T02:29:47.703Z,19.06
2018-08-19T02:29:48.301Z,19.08
2018-08-19T02:29:48.901Z,19.05
2018-08-19T02:30:43.367Z,19.05
2018-08-19T02:30:43.940Z,18.97
2018-08-19T02:30:44.538Z,18.95
2018-08-19T02:30:45.139Z,19.08
2018-08-19T02:30:45.739Z,18.99
2018-08-19T02:30:46.338Z,18.95
2018-08-19T02:30:46.940Z,18.97
2018-08-19T02:30:47.540Z,18.99
2018-08-19T02:31:42.004Z,18.98
2018-08-19T02:31:42.577Z,19.08
2018-08-19T02:31:43.177Z,19.01
2018-08-19T02:31:43.776Z,19.02
2018-08-19T02:31:44.376Z,19.01
2018-08-19T02:31:44.976Z,18.92
2018-08-19T02:31:45.580Z,19.01
2018-08-19T02:31:46.176Z,18.97
2018-08-19T02:32:40.641Z,19.06
2018-08-19T02:32:41.214Z,18.97
2018-08-19T02:32:41.815Z,18.98
2018-08-19T02:32:42.414Z,19.05
2018-08-19T02:32:43.014Z,19.01
2018-08-19T02:32:43.614Z,19.02
2018-08-19T02:32:44.214Z,18.99
2018-08-19T02:32:44.814Z,18.99
2018-08-19T02:33:38.288Z,18.95
2018-08-19T02:33:38.859Z,19.02
2018-08-19T02:33:39.460Z,19.01
2018-08-19T02:33:40.059Z,19.05
2018-08-19T02:33:40.661Z,18.95
2018-08-19T02:33:41.260Z,18.95
2018-08-19T02:33:41.864Z,19.01
2018-08-19T02:33:42.459Z,18.99
2018-08-19T02:34:36.927Z,18.99
2018-08-19T02:34:37.498Z,19.01
2018-08-19T02:34:38.098Z,19.10
2018-08-19T02:34:38.698Z,18.98
2018-08-19T02:34:39.300Z,18.98
2018-08-19T02:34:39.899Z,19.05
2018-08-19T02:34:40.499Z,18.97
2018-08-19T02:34:41.096Z,18.95
2018-08-19T02:35:35.562Z,19.10
2018-08-19T02:35:36.137Z,18.95
2018-08-19T02:35:36.735Z,18.98
2018-08-19T02:35:37.336Z,18.99
2018-08-19T02:35:37.949Z,19.08
2018-08-19T02:35:38.535Z,19.02
2018-08-19T02:35:39.138Z,19.10
2018-08-19T02:35:39.735Z,19.05
2018-08-19T02:36:34.199Z,19.02
2018-08-19T02:36:34.776Z,19.06
2018-08-19T02:36:35.371Z,19.08
2018-08-19T02:36:35.970Z,19.06
2018-08-19T02:36:36.571Z,19.06
2018-08-19T02:36:37.173Z,19.02
2018-08-19T02:36:37.775Z,19.06
2018-08-19T02:36:38.372Z,19.06
2018-08-19T02:37:31.846Z,19.06
2018-08-19T02:37:32.419Z,19.06
2018-08-19T02:37:33.019Z,19.05
2018-08-19T02:37:33.619Z,18.98
2018-08-19T02:37:34.219Z,19.02
2018-08-19T02:37:34.820Z,19.02
2018-08-19T02:37:35.420Z,18.98
2018-08-19T02:37:36.019Z,19.05
2018-08-19T02:38:30.483Z,18.98
2018-08-19T02:38:31.056Z,19.10
2018-08-19T02:38:31.658Z,19.10
2018-08-19T02:38:32.257Z,19.05
2018-08-19T02:38:32.857Z,19.01
2018-08-19T02:38:33.455Z,19.06
2018-08-19T02:38:34.057Z,19.06
2018-08-19T02:38:34.657Z,19.05
2018-08-19T02:39:28.136Z,18.99
2018-08-19T02:39:28.701Z,19.02
2018-08-19T02:39:29.302Z,19.10
2018-08-19T02:39:29.901Z,19.02
2018-08-19T02:39:30.512Z,19.06
2018-08-19T02:39:31.101Z,19.05
2018-08-19T02:39:31.703Z,19.13
2018-08-19T02:39:32.301Z,19.17
2018-08-19T02:40:25.773Z,19.01
2018-08-19T02:40:26.347Z,19.02
2018-08-19T02:40:26.945Z,19.14
2018-08-19T02:40:27.549Z,19.13
2018-08-19T02:40:28.144Z,19.17
2018-08-19T02:40:28.744Z,19.13
2018-08-19T02:40:29.346Z,19.02
2018-08-19T02:40:29.944Z,19.10
2018-08-19T02:41:24.409Z,19.05
2018-08-19T02:41:24.983Z,19.13
2018-08-19T02:41:25.582Z,19.14
2018-08-19T02:41:26.182Z,19.01
2018-08-19T02:41:26.781Z,19.15
2018-08-19T02:41:27.381Z,19.17
2018-08-19T02:41:27.981Z,19.06
2018-08-19T02:41:28.582Z,19.10
2018-08-19T02:42:22.056Z,19.08
2018-08-19T02:42:22.628Z,19.08
2018-08-19T02:42:23.228Z,19.11
2018-08-19T02:42:23.830Z,19.08
2018-08-19T02:42:24.432Z,19.11
2018-08-19T02:42:25.031Z,19.06
2018-08-19T02:42:25.628Z,19.10
2018-08-19T02:42:26.233Z,19.13
2018-08-19T02:43:19.701Z,19.08
2018-08-19T02:43:20.275Z,19.14
2018-08-19T02:43:20.875Z,19.14
2018-08-19T02:43:21.476Z,19.15
2018-08-19T02:43:22.074Z,19.17
2018-08-19T02:43:22.676Z,19.13
2018-08-19T02:43:23.275Z,19.13
2018-08-19T02:43:23.878Z,19.06
2018-08-19T02:44:17.347Z,19.14
2018-08-19T02:44:17.922Z,19.17
2018-08-19T02:44:18.521Z,19.05
2018-08-19T02:44:19.122Z,19.13
2018-08-19T02:44:19.721Z,19.14
2018-08-19T02:44:20.321Z,19.06
2018-08-19T02:44:20.921Z,19.17
2018-08-19T02:44:21.523Z,19.15
2018-08-19T02:45:14.993Z,19.11
2018-08-19T02:45:15.568Z,19.10
2018-08-19T02:45:16.167Z,19.11
2018-08-19T02:45:16.767Z,19.17
2018-08-19T02:45:17.368Z,19.17
2018-08-19T02:45:17.968Z,19.20
2018-08-19T02:45:18.567Z,19.06
2018-08-19T02:45:19.170Z,19.15
2018-08-19T02:46:12.641Z,19.11
2018-08-19T02:46:13.215Z,19.11
2018-08-19T02:46:13.817Z,19.11
2018-08-19T02:46:14.423Z,19.11
2018-08-19T02:46:15.015Z,19.15
2018-08-19T02:46:15.613Z,19.15
2018-08-19T02:46:16.214Z,19.11
2018-08-19T02:46:16.813Z,19.15
2018-08-19T02:47:11.279Z,19.11
2018-08-19T02:47:11.851Z,19.11
2018-08-19T02:47:12.451Z,19.14
2018-08-19T02:47:13.052Z,19.13
2018-08-19T02:47:13.652Z,19.14
2018-08-19T02:47:14.251Z,19.13
2018-08-19T02:47:14.850Z,19.15
2018-08-19T02:47:15.453Z,19.17
2018-08-19T02:48:09.917Z,19.14
2018-08-19T02:48:10.489Z,19.11
2018-08-19T02:48:11.089Z,19.15
2018-08-19T02:48:11.688Z,19.14
2018-08-19T02:48:12.288Z,19.17
2018-08-19T02:48:12.887Z,19.15
2018-08-19T02:48:13.489Z,19.11
2018-08-19T02:48:14.088Z,19.13
2018-08-19T02:49:07.566Z,19.13
2018-08-19T02:49:08.139Z,19.14
2018-08-19T02:49:08.737Z,19.10
2018-08-19T02:49:09.337Z,19.15
2018-08-19T02:49:09.937Z,19.18
2018-08-19T02:49:10.538Z,19.15
2018-08-19T02:49:11.137Z,19.17
2018-08-19T02:49:11.738Z,19.17
2018-08-19T02:50:05.212Z,19.14
2018-08-19T02:50:05.784Z,19.20
2018-08-19T02:50:06.384Z,19.20
2018-08-19T02:50:06.985Z,19.18
2018-08-19T02:50:07.583Z,19.20
2018-08-19T02:50:08.183Z,19.17
2018-08-19T02:50:08.788Z,19.17
2018-08-19T02:50:09.383Z,19.21
2018-08-19T02:51:03.849Z,19.13
2018-08-19T02:51:04.420Z,19.24
2018-08-19T02:51:05.022Z,19.15
2018-08-19T02:51:05.621Z,19.32
2018-08-19T02:51:06.223Z,19.20
2018-08-19T02:51:06.821Z,19.23
2018-08-19T02:51:07.426Z,19.15
2018-08-19T02:51:08.021Z,19.24
2018-08-19T02:52:02.485Z,19.21
2018-08-19T02:52:03.060Z,19.13
2018-08-19T02:52:03.659Z,19.15
2018-08-19T02:52:04.260Z,19.17
2018-08-19T02:52:04.857Z,19.23
2018-08-19T02:52:05.458Z,19.18
2018-08-19T02:52:06.059Z,19.29
2018-08-19T02:52:06.665Z,19.24
2018-08-19T02:53:00.133Z,19.17
2018-08-19T02:53:00.705Z,19.29
2018-08-19T02:53:01.306Z,19.11
2018-08-19T02:53:01.923Z,19.13
2018-08-19T02:53:02.581Z,19.21
2018-08-19T02:53:03.104Z,19.21
2018-08-19T02:53:03.703Z,19.24
2018-08-19T02:53:04.306Z,19.15
2018-08-19T02:53:57.778Z,19.15
2018-08-19T02:53:58.350Z,19.18
2018-08-19T02:53:58.952Z,19.15
2018-08-19T02:53:59.549Z,19.14
2018-08-19T02:54:00.149Z,19.29
2018-08-19T02:54:00.751Z,19.21
2018-08-19T02:54:01.349Z,19.14
2018-08-19T02:54:01.949Z,19.13
2018-08-19T02:54:56.415Z,19.11
2018-08-19T02:54:56.988Z,19.23
2018-08-19T02:54:57.587Z,19.11
2018-08-19T02:54:58.189Z,19.15
2018-08-19T02:54:58.788Z,19.17
2018-08-19T02:54:59.387Z,19.17
2018-08-19T02:54:59.986Z,19.15
2018-08-19T02:55:00.598Z,19.18
2018-08-19T02:55:55.052Z,19.15
2018-08-19T02:55:55.625Z,19.20
2018-08-19T02:55:56.223Z,19.15
2018-08-19T02:55:56.824Z,19.17
2018-08-19T02:55:57.424Z,19.15
2018-08-19T02:55:58.024Z,19.17
2018-08-19T02:55:58.624Z,19.24
2018-08-19T02:55:59.224Z,19.15
2018-08-19T02:56:53.689Z,19.15
2018-08-19T02:56:54.261Z,19.13
2018-08-19T02:56:54.861Z,19.23
2018-08-19T02:56:55.464Z,19.20
2018-08-19T02:56:56.061Z,19.17
2018-08-19T02:56:56.662Z,19.23
2018-08-19T02:56:57.263Z,19.32
2018-08-19T02:56:57.860Z,19.23
2018-08-19T02:57:51.335Z,19.13
2018-08-19T02:57:51.907Z,19.17
2018-08-19T02:57:52.508Z,19.24
2018-08-19T02:57:53.117Z,19.18
2018-08-19T02:57:53.708Z,19.13
2018-08-19T02:57:54.307Z,19.17
2018-08-19T02:57:54.909Z,19.29
2018-08-19T02:57:55.515Z,19.18
2018-08-19T02:58:49.977Z,19.15
2018-08-19T02:58:50.544Z,19.15
2018-08-19T02:58:51.144Z,19.21
2018-08-19T02:58:51.744Z,19.18
2018-08-19T02:58:52.343Z,19.20
2018-08-19T02:58:52.943Z,19.23
2018-08-19T02:58:53.546Z,19.24
2018-08-19T02:58:54.144Z,19.25
2018-08-19T02:59:47.619Z,19.15
2018-08-19T02:59:48.193Z,19.13
2018-08-19T02:59:48.790Z,19.20
2018-08-19T02:59:49.390Z,19.15
2018-08-19T02:59:49.989Z,19.13
2018-08-19T02:59:50.590Z,19.13
2018-08-19T02:59:51.189Z,19.24
2018-08-19T02:59:51.789Z,19.13
2018-08-19T03:00:45.264Z,19.20
2018-08-19T03:00:45.840Z,19.15
2018-08-19T03:00:46.443Z,19.18
2018-08-19T03:00:47.038Z,19.17
2018-08-19T03:00:47.635Z,19.21
2018-08-19T03:00:48.237Z,19.28
2018-08-19T03:00:48.837Z,19.15
2018-08-19T03:00:49.435Z,19.15
2018-08-19T03:01:42.915Z,19.20
2018-08-19T03:01:43.483Z,19.28
2018-08-19T03:01:44.082Z,19.18
2018-08-19T03:01:44.687Z,19.21
2018-08-19T03:01:45.282Z,19.15
2018-08-19T03:01:45.886Z,19.17
2018-08-19T03:01:46.481Z,19.18
2018-08-19T03:01:47.082Z,19.13
2018-08-19T03:02:40.555Z,19.15
2018-08-19T03:02:41.128Z,19.17
2018-08-19T03:02:41.727Z,19.21
2018-08-19T03:02:42.326Z,19.14
2018-08-19T03:02:42.929Z,19.15
2018-08-19T03:02:43.527Z,19.14
2018-08-19T03:02:44.126Z,19.25
2018-08-19T03:02:44.727Z,19.21
2018-08-19T03:03:39.195Z,19.13
2018-08-19T03:03:39.764Z,19.18
2018-08-19T03:03:40.371Z,19.24
2018-08-19T03:03:40.965Z,19.15
2018-08-19T03:03:41.567Z,19.25
2018-08-19T03:03:42.164Z,19.23
2018-08-19T03:03:42.767Z,19.17
2018-08-19T03:03:43.364Z,19.15
2018-08-19T03:04:37.829Z,19.18
2018-08-19T03:04:38.401Z,19.15
2018-08-19T03:04:39.002Z,19.28
2018-08-19T03:04:39.601Z,19.11
2018-08-19T03:04:40.200Z,19.15
2018-08-19T03:04:40.801Z,19.11
2018-08-19T03:04:41.403Z,19.11